• Join FlightAware (Why Join?)
  • Login
  • US Flag 
01:07AM EDT


 

Airport Tracker/Info


-or-


 

Live Flight TrackerFlight Track Log ✈ UAL139 ✈ 28-Oct-2013 ✈ KDEN - RJAA / NRT

Flight Track Log - Related Links

Times and Time Zones

All times are in EDT time to prevent confusion due to time zone crossing. See the UAL139 flight status page for this flight to view local times or setup timezone preferences in your user account.

Time Position Orientation Groundspeed Altitude Reporting Facility
EDT Latitude Longitude Course Direction KTS MPH feet Rate Location/Type
03:37PM 39.8690 -104.6960 293° West 148 170 5,200  Level FlightAware
03:38PM 39.8960 -104.6970 358° North 185 213 6,300 1,500 Climbing FlightAware
03:38PM 39.9290 -104.6990 357° North 232 267 6,900 1,080 Climbing FlightAware
03:38PM 39.9570 -104.7070 348° North 262 302 7,400 1,980 Climbing FlightAware
03:39PM 39.9950 -104.7180 347° North 275 316 8,800 2,220 Climbing FlightAware
03:40PM 40.0370 -104.7300 348° North 302 348 9,800 1,680 Climbing FlightAware
03:40PM 40.0900 -104.7510 343° North 337 388 10,800 1,620 Climbing FlightAware
03:41PM 40.1460 -104.7770 340° North 366 421 11,800 2,100 Climbing FlightAware
03:41PM 40.2110 -104.8070 341° North 376 433 13,500 2,700 Climbing FlightAware
03:42PM 40.2640 -104.8320 340° North 377 434 15,100 2,820 Climbing FlightAware
03:43PM 40.3220 -104.8590 340° North 382 440 16,600 2,460 Climbing FlightAware
03:43PM 40.3830 -104.8870 341° North 388 447 18,100 2,280 Climbing FlightAware
03:44PM 40.4360 -104.9120 340° North 395 455 19,200 2,040 Climbing FlightAware
03:44PM 40.5170 -104.9510 340° North 409 471 20,700 1,920 Climbing FlightAware
03:45PM 40.5880 -104.9840 341° North 417 480 22,000 1,920 Climbing FlightAware
03:46PM 40.6440 -105.0110 340° North 421 484 23,000 1,920 Climbing FlightAware
03:46PM 40.7100 -105.0420 340° North 426 490 24,200 1,800 Climbing FlightAware
03:47PM 40.7710 -105.0780 336° Northwest 425 489 25,100 1,560 Climbing FlightAware
03:48PM 40.8660 -105.1880 319° Northwest 432 497 26,700 1,680 Climbing FlightAware
03:48PM 40.9020 -105.2430 311° West 425 489 27,700 1,680 Climbing FlightAware
03:49PM 40.9440 -105.3080 311° West 435 501 28,400 1,260 Climbing FlightAware
03:49PM 40.9770 -105.3580 311° West 436 502 29,000 1,440 Climbing FlightAware
03:50PM 41.0250 -105.4300 311° West 439 505 29,900 1,320 Climbing FlightAware
03:50PM 41.0750 -105.5060 311° West 443 510 30,600 1,140 Climbing FlightAware
03:51PM 41.1290 -105.5880 311° West 450 518 31,400 1,260 Climbing FlightAware
03:52PM 41.1720 -105.6540 311° West 451 519 32,100 1,260 Climbing FlightAware
03:52PM 41.2310 -105.7450 311° West 452 520 33,000 1,260 Climbing FlightAware
03:53PM 41.2810 -105.8220 311° West 450 518 33,800 1,200 Climbing FlightAware
03:54PM 41.3640 -105.9510 311° West 446 513 35,000 1,440 Climbing FlightAware
03:54PM 41.4020 -106.0090 311° West 433 498 36,000 1,560 Climbing FlightAware
03:55PM 41.4480 -106.0820 310° West 425 489 36,700 900 Climbing FlightAware
03:56PM 41.4830 -106.1370 310° West 425 489 37,000 360 Climbing FlightAware
03:57PM 41.5650 -106.2640 311° West 435 501 37,300 300 Climbing FlightAware
03:57PM 41.6310 -106.3680 310° West 438 504 37,600 180 Climbing FlightAware
03:58PM 41.7000 -106.4780 310° West 439 505 37,700 60 Climbing FlightAware
03:59PM 41.7410 -106.5440 310° West 439 505 37,700  Level FlightAware
04:00PM 41.8210 -106.6710 310° West 439 505 37,700  Level FlightAware
04:01PM 41.8480 -106.7140 310° West 439 505 37,700  Level FlightAware
04:01PM 41.8900 -106.7810 310° West 439 505 37,700  Level FlightAware
04:02PM 41.9300 -106.8450 310° West 439 505 37,700  Level FlightAware
04:03PM 41.9700 -106.9090 310° West 439 505 37,700  Level FlightAware
04:04PM 42.0360 -107.0160 310° West 439 505 37,700  Level FlightAware
04:04PM 42.0760 -107.0800 310° West 439 505 37,700  Level FlightAware
04:05PM 42.1030 -107.1230 310° West 439 505 37,700  Level FlightAware
04:06PM 42.1840 -107.2530 310° West 439 505 37,700  Level FlightAware
04:07PM 42.2380 -107.3410 310° West 439 505 37,700  Level FlightAware
04:07PM 42.2790 -107.4070 310° West 439 505 37,700  Level FlightAware
04:08PM 42.3060 -107.4500 310° West 439 505 37,700 240 Level FlightAware
04:08PM 42.4967 -107.7633 310° West 450 518 38,000 120 Climbing Salt Lake Center
04:09PM 42.5728 -107.8914 309° West 456 525 38,000  Level Salt Lake Center
04:10PM 42.6653 -108.0406 310° West 462 532 38,000  Level Salt Lake Center
04:12PM 42.7406 -108.1692 309° West 460 529 38,000 -60 Level Salt Lake Center
04:13PM 42.8294 -108.3189 309° West 457 526 37,900 -540 Descending Salt Lake Center
04:14PM 42.9072 -108.4494 309° West 461 531 37,000 -480 Descending Salt Lake Center
04:15PM 42.9864 -108.5850 309° West 453 521 37,000  Level Salt Lake Center
04:16PM 43.0658 -108.7183 309° West 452 520 37,000  Level Salt Lake Center
04:17PM 43.1442 -108.8544 308° West 454 522 37,000  Level Salt Lake Center
04:18PM 43.2236 -108.9889 309° West 454 522 37,000  Level Salt Lake Center
04:19PM 43.3025 -109.1261 308° West 456 525 37,000  Level Salt Lake Center
04:20PM 43.3975 -109.2897 309° West 457 526 37,000  Level Salt Lake Center
04:21PM 43.4769 -109.4267 309° West 458 527 37,000  Level Salt Lake Center
04:22PM 43.5511 -109.5569 308° West 459 528 37,000  Level Salt Lake Center
04:23PM 43.6397 -109.7114 308° West 459 528 37,000  Level Salt Lake Center
04:24PM 43.7158 -109.8478 308° West 466 536 37,000  Level Salt Lake Center
04:29PM 44.1730 -110.6650 308° West 479 551 37,000  Level FlightAware
04:30PM 44.2460 -110.7970 308° West 479 551 37,000  Level FlightAware
04:31PM 44.2810 -110.8610 307° West 479 551 37,000  Level FlightAware
04:32PM 44.3490 -110.9860 307° West 482 555 37,000  Level FlightAware
04:32PM 44.3950 -111.0720 307° West 483 556 37,000  Level FlightAware
04:33PM 44.4560 -111.1830 308° West 485 558 37,000  Level FlightAware
04:34PM 44.5420 -111.3440 307° West 489 563 37,000  Level FlightAware
04:35PM 44.5920 -111.4370 307° West 488 562 37,000  Level FlightAware
04:35PM 44.6330 -111.5140 307° West 491 565 37,000  Level FlightAware
04:36PM 44.6860 -111.6130 307° West 493 567 37,000  Level FlightAware
04:37PM 44.7740 -111.7790 307° West 492 566 37,000  Level FlightAware
04:38PM 44.8290 -111.8840 306° West 493 567 37,000  Level FlightAware
04:38PM 44.8680 -111.9580 307° West 492 566 37,000  Level FlightAware
04:39PM 44.9150 -112.0480 306° West 491 565 37,000  Level FlightAware
04:39PM 44.9730 -112.1590 306° West 493 567 37,000  Level FlightAware
04:40PM 45.0180 -112.2450 307° West 494 568 37,000  Level FlightAware
04:41PM 45.0750 -112.3570 306° West 494 568 37,000  Level FlightAware
04:41PM 45.1430 -112.4870 307° West 498 573 37,000  Level FlightAware
04:42PM 45.2020 -112.6000 307° West 496 571 37,000  Level FlightAware
04:43PM 45.2480 -112.6910 306° West 497 572 37,000  Level FlightAware
04:43PM 45.3070 -112.8070 306° West 497 572 37,000  Level FlightAware
04:44PM 45.3530 -112.8970 306° West 494 568 37,000  Level FlightAware
04:44PM 45.3820 -112.9540 306° West 492 566 37,000  Level FlightAware
04:45PM 45.4250 -113.0420 305° West 492 566 37,000 240 Level FlightAware
04:46PM 45.4930 -113.1730 307° West 503 579 37,400 360 Climbing FlightAware
04:46PM 45.5440 -113.2740 306° West 510 587 37,500 420 Climbing FlightAware
04:47PM 45.6050 -113.3970 305° West 505 581 38,000 360 Climbing FlightAware
04:48PM 45.6380 -113.4620 306° West 504 580 38,000  Level FlightAware
04:48PM 45.6930 -113.5740 305° West 502 578 38,000  Level FlightAware
04:49PM 45.7550 -113.7000 305° West 497 572 38,000  Level FlightAware
04:50PM 45.8020 -113.7950 305° West 503 579 38,000  Level FlightAware
04:50PM 45.8350 -113.8610 306° West 503 579 38,000  Level FlightAware
04:51PM 45.8790 -113.9510 305° West 503 579 38,000  Level FlightAware
04:51PM 45.9200 -114.0350 305° West 503 579 38,000  Level FlightAware
04:52PM 45.9620 -114.1210 305° West 503 579 38,000  Level FlightAware
04:52PM 46.0040 -114.2080 305° West 503 579 38,000  Level FlightAware
04:53PM 46.0420 -114.2870 305° West 503 579 38,000  Level FlightAware
04:54PM 46.0840 -114.3730 305° West 503 579 38,000  Level FlightAware
04:54PM 46.1390 -114.4860 305° West 503 579 38,000  Level FlightAware
04:55PM 46.1930 -114.5980 305° West 503 579 38,000  Level FlightAware
04:56PM 46.2330 -114.6800 305° West 503 579 38,000  Level FlightAware
04:57PM 46.3010 -114.8210 305° West 503 579 38,000  Level FlightAware
04:57PM 46.3280 -114.8770 305° West 503 579 38,000  Level FlightAware
04:58PM 46.3700 -114.9640 305° West 503 579 38,000  Level FlightAware
04:59PM 46.4390 -115.1070 305° West 503 579 38,000  Level FlightAware
04:59PM 46.4800 -115.1920 305° West 503 579 38,000  Level FlightAware
05:00PM 46.5070 -115.2480 305° West 503 579 38,000  Level FlightAware
05:01PM 46.6739 -115.6231 305° West 497 572 38,000  Level Salt Lake Center
05:02PM 46.7489 -115.7869 304° West 490 564 38,000 -60 Level Salt Lake Center
05:03PM 46.8253 -115.9542 304° West 492 566 37,900  Descending Salt Lake Center
05:04PM 46.9072 -116.1372 303° West 492 566 38,000  Climbing Salt Lake Center
05:05PM 46.9828 -116.3022 304° West 490 564 37,900  Descending Seattle Center
05:06PM 47.0714 -116.5039 303° West 490 564 38,000  Climbing Seattle Center
05:07PM 47.1467 -116.6697 304° West 489 563 37,900  Descending Seattle Center
05:08PM 47.2211 -116.8386 303° West 491 565 38,000  Climbing Seattle Center
05:09PM 47.2969 -117.0092 303° West 494 568 37,900 -60 Descending Seattle Center
05:10PM 47.3719 -117.1808 303° West 492 566 37,900  Level Seattle Center
05:11PM 47.4464 -117.3542 302° West 491 565 38,000  Climbing Seattle Center
05:12PM 47.5211 -117.5264 303° West 492 566 37,900  Descending Seattle Center
05:17PM 47.8870 -118.4290 303° West 491 565 38,000  Climbing FlightAware
05:18PM 47.9210 -118.5140 301° West 493 567 38,000  Level FlightAware
05:18PM 47.9560 -118.6050 300° West 496 571 38,000  Level FlightAware
05:19PM 48.0065 -118.7330 301° West 495 570 38,000  Level FlightAware ADS-B
05:20PM 48.0919 -118.9520 300° West 492 566 38,000  Level FlightAware ADS-B
05:21PM 48.1424 -119.0820 300° West 494 568 38,000  Level FlightAware ADS-B
05:22PM 48.1852 -119.1930 300° West 494 568 38,000  Level FlightAware ADS-B
05:22PM 48.2195 -119.2830 300° West 490 564 38,000  Level FlightAware ADS-B
05:23PM 48.2532 -119.3710 300° West 490 564 38,000  Level FlightAware ADS-B
05:23PM 48.2870 -119.4600 300° West 489 563 38,000  Level FlightAware ADS-B
05:24PM 48.3221 -119.5520 300° West 487 560 38,000  Level FlightAware ADS-B
05:24PM 48.3564 -119.6420 300° West 488 562 38,000  Level FlightAware ADS-B
05:24PM 48.3633 -119.6604 299° West 489 563 38,000  Level FlightAware ADS-B (CYWH)
05:25PM 48.3907 -119.7330 300° West 491 565 38,000  Level FlightAware ADS-B
05:25PM 48.3987 -119.7545 299° West 492 566 38,000  Level FlightAware ADS-B (CYWH)
05:25PM 48.4241 -119.8230 299° West 489 563 38,000  Level FlightAware ADS-B
05:25PM 48.4327 -119.8458 300° West 483 556 38,000  Level FlightAware ADS-B (CYWH)
05:26PM 48.4593 -119.9170 299° West 483 556 38,000  Level FlightAware ADS-B
05:26PM 48.4722 -119.9511 300° West 478 550 38,000  Level FlightAware ADS-B (CYWH)
05:26PM 48.4908 -120.0010 299° West 481 554 38,000  Level FlightAware ADS-B
05:26PM 48.5060 -120.0415 299° West 477 549 38,000  Level FlightAware ADS-B (CYWH)
05:27PM 48.5240 -120.0890 300° West 480 552 38,000  Level FlightAware ADS-B
05:27PM 48.5380 -120.1273 299° West 480 552 38,000  Level FlightAware ADS-B (CYWH)
05:27PM 48.5571 -120.1790 299° West 484 557 38,000  Level FlightAware ADS-B
05:28PM 48.5834 -120.2502 299° West 480 552 38,000  Level FlightAware ADS-B (CYWH)
05:28PM 48.6105 -120.3240 299° West 484 557 38,000  Level FlightAware ADS-B
05:28PM 48.6235 -120.3587 299° West 477 549 38,000  Level FlightAware ADS-B (CYWH)
05:29PM 48.6439 -120.4140 299° West 480 552 38,000  Level FlightAware ADS-B
05:29PM 48.6596 -120.4571 299° West 476 548 38,000  Level FlightAware ADS-B (CYWH)
05:29PM 48.6764 -120.5030 299° West 480 552 38,000  Level FlightAware ADS-B
05:29PM 48.6934 -120.5497 299° West 476 548 38,000  Level FlightAware ADS-B (CYWH)
05:30PM 48.7089 -120.5920 299° West 480 552 38,000  Level FlightAware ADS-B
05:30PM 48.7411 -120.6800 299° West 482 555 38,000  Level FlightAware ADS-B
05:30PM 48.7493 -120.7026 299° West 483 556 38,000  Level FlightAware ADS-B
05:31PM 48.7720 -120.7654 299° West 480 552 38,000  Level FlightAware ADS-B (CYWH)
05:31PM 48.7737 -120.7700 299° West 484 557 38,000  Level FlightAware ADS-B
05:31PM 48.8069 -120.8620 299° West 484 557 38,000  Level FlightAware ADS-B
05:32PM 48.8399 -120.9542 299° West 479 551 38,000  Level FlightAware ADS-B (CYWH)
05:32PM 48.8776 -121.0520 300° West 480 552 38,000  Level FlightAware ADS-B
05:32PM 48.8767 -121.0501 126° Southeast 480 552 38,000  Level FlightAware ADS-B
05:33PM 48.9132 -121.1432 301° West 480 552 38,000  Level FlightAware ADS-B
05:33PM 48.9199 -121.1610 300° West 480 552 38,000  Level FlightAware ADS-B
05:33PM 48.9483 -121.2341 301° West 478 550 38,000  Level FlightAware ADS-B
05:33PM 48.9539 -121.2490 300° West 478 550 38,000  Level FlightAware ADS-B
05:34PM 48.9816 -121.3209 300° West 476 548 38,000  Level FlightAware ADS-B
05:34PM 48.9873 -121.3360 300° West 476 548 38,000  Level FlightAware ADS-B
05:34PM 48.9906 -121.3446 300° West 472 543 38,000  Level FlightAware ADS-B (CYWH)
05:34PM 49.0222 -121.4280 300° West 473 544 38,000  Level FlightAware ADS-B
05:34PM 49.0254 -121.4363 301° West 472 543 38,000  Level FlightAware ADS-B
05:35PM 49.0550 -121.5140 300° West 471 542 38,000  Level FlightAware ADS-B
05:35PM 49.0583 -121.5229 299° West 470 541 38,000  Level FlightAware ADS-B
05:35PM 49.0876 -121.6010 300° West 469 540 38,000  Level FlightAware ADS-B
05:35PM 49.0936 -121.6167 300° West 468 539 38,000  Level FlightAware ADS-B
05:36PM 49.1209 -121.6890 300° West 468 539 38,000  Level FlightAware ADS-B
05:36PM 49.1327 -121.7206 300° West 467 537 38,000  Level FlightAware ADS-B
05:36PM 49.1549 -121.7800 300° West 466 536 38,000  Level FlightAware ADS-B
05:37PM 49.1590 -121.7908 300° West 462 532 38,000  Level FlightAware ADS-B (CYWH)
05:37PM 49.1814 -121.8507 300° West 462 532 38,000  Level FlightAware ADS-B (CYWH)
05:37PM 49.1878 -121.8680 299° West 466 536 38,000  Level FlightAware ADS-B
05:37PM 49.2199 -121.9540 300° West 462 532 38,000  Level FlightAware ADS-B
05:38PM 49.2216 -121.9587 299° West 462 532 38,000  Level FlightAware ADS-B
05:38PM 49.2514 -122.0390 300° West 459 528 38,000  Level FlightAware ADS-B
05:38PM 49.2541 -122.0462 300° West 459 528 38,000  Level FlightAware ADS-B
05:39PM 49.2903 -122.1440 300° West 460 529 38,000  Level FlightAware ADS-B
05:39PM 49.3194 -122.2223 300° West 464 534 38,000  Level FlightAware ADS-B
05:39PM 49.3221 -122.2300 298° West 461 531 38,000  Level FlightAware ADS-B
05:40PM 49.3500 -122.3056 300° West 463 533 38,000  Level FlightAware ADS-B
05:40PM 49.3843 -122.3991 299° West 461 531 38,000  Level FlightAware ADS-B (CYWH)
05:41PM 49.4173 -122.4897 299° West 461 531 38,000  Level FlightAware ADS-B (CYWH)
05:41PM 49.4449 -122.5650 299° West 461 531 38,000  Level FlightAware ADS-B
05:41PM 49.4530 -122.5875 299° West 460 529 38,000  Level FlightAware ADS-B
05:42PM 49.4839 -122.6728 299° West 459 528 38,000  Level FlightAware ADS-B
05:42PM 49.4895 -122.6880 299° West 460 529 38,000  Level FlightAware ADS-B
05:42PM 49.5213 -122.7760 299° West 459 528 38,000  Level FlightAware ADS-B
05:42PM 49.5263 -122.7900 299° West 458 527 38,000  Level FlightAware ADS-B
05:43PM 49.5543 -122.8680 299° West 457 526 38,000  Level FlightAware ADS-B
05:43PM 49.5580 -122.8782 299° West 457 526 38,000  Level FlightAware ADS-B
05:43PM 49.5859 -122.9560 299° West 457 526 38,000  Level FlightAware ADS-B
05:43PM 49.5873 -122.9599 299° West 457 526 38,000  Level FlightAware ADS-B
05:44PM 49.6101 -123.0236 299° West 453 521 38,000  Level FlightAware ADS-B (CYWH)
05:44PM 49.6280 -123.0738 299° West 454 522 38,000  Level FlightAware ADS-B (CYCD)
05:44PM 49.6443 -123.1194 299° West 454 522 38,000  Level FlightAware ADS-B (CYWH)
05:45PM 49.6775 -123.2130 299° West 452 520 38,000  Level FlightAware ADS-B (CYWH)
05:45PM 49.7141 -123.3160 299° West 456 525 38,000  Level FlightAware ADS-B
05:46PM 49.7199 -123.3326 299° West 453 521 38,000  Level FlightAware ADS-B (CYWH)
05:46PM 49.7547 -123.4315 299° West 457 526 38,000  Level FlightAware ADS-B (CYWH)
05:47PM 49.7844 -123.5161 299° West 455 524 38,000  Level FlightAware ADS-B
05:47PM 49.7942 -123.5440 299° West 455 524 38,000  Level FlightAware ADS-B
05:47PM 49.8170 -123.6093 298° West 456 525 38,000  Level FlightAware ADS-B
05:48PM 49.8418 -123.6800 299° West 455 524 38,000  Level FlightAware ADS-B
05:48PM 49.8470 -123.6953 298° West 457 526 38,000  Level FlightAware ADS-B
05:48PM 49.8718 -123.7670 298° West 459 528 38,000  Level FlightAware ADS-B
05:48PM 49.8692 -123.7592 117° Southeast 458 527 38,000  Level FlightAware ADS-B
05:49PM 49.9020 -123.8540 298° West 459 528 38,000  Level FlightAware ADS-B
05:49PM 49.9102 -123.8777 298° West 460 529 38,000  Level FlightAware ADS-B
05:49PM 49.9243 -123.9183 298° West 457 526 38,000  Level FlightAware ADS-B (CYCD)
05:49PM 49.9324 -123.9420 298° West 460 529 38,000  Level FlightAware ADS-B
05:49PM 49.9445 -123.9770 298° West 457 526 38,000  Level FlightAware ADS-B (CYCD)
05:50PM 49.9629 -124.0310 298° West 461 531 38,000  Level FlightAware ADS-B
05:50PM 49.9927 -124.1175 298° West 463 533 38,000  Level FlightAware ADS-B
05:50PM 49.9941 -124.1220 295° West 463 533 38,000  Level FlightAware ADS-B
05:50PM 50.0163 -124.1866 298° West 459 528 38,000  Level FlightAware ADS-B (CYCD)
05:51PM 50.0243 -124.2100 298° West 464 534 38,000  Level FlightAware ADS-B
05:51PM 50.0428 -124.2642 298° West 465 535 38,000  Level FlightAware ADS-B
05:51PM 50.0557 -124.3020 298° West 465 535 38,000  Level FlightAware ADS-B
05:52PM 50.0860 -124.3920 298° West 463 533 38,000  Level FlightAware ADS-B
05:52PM 50.0950 -124.4181 298° West 459 528 38,000  Level FlightAware ADS-B (CYCD)
05:52PM 50.1373 -124.5437 298° West 461 531 38,000  Level FlightAware ADS-B (CYCD)
05:53PM 50.1679 -124.6346 298° West 460 529 38,000  Level FlightAware ADS-B (CYCD)
05:53PM 50.1984 -124.7225 298° West 458 527 38,000  Level FlightAware ADS-B (CYCD)
05:54PM 50.2338 -124.8059 304° West 448 516 38,000  Level FlightAware ADS-B (CYCD)
05:55PM 50.2837 -124.9104 307° West 449 517 38,000  Level FlightAware ADS-B (CYCD)
05:55PM 50.3265 -125.0005 307° West 447 514 38,000  Level FlightAware ADS-B (CYCD)
05:56PM 50.3633 -125.0788 306° West 444 511 38,000  Level FlightAware ADS-B (CYCD)
05:56PM 50.4170 -125.1931 306° West 444 511 38,000  Level FlightAware ADS-B (CYCD)
05:57PM 50.4539 -125.2716 306° West 446 513 38,000  Level FlightAware ADS-B (CYCD)
05:58PM 50.5056 -125.3820 306° West 445 512 38,000  Level FlightAware ADS-B (CYCD)
05:58PM 50.5483 -125.4740 306° West 444 511 38,000  Level FlightAware ADS-B (CYCD)
05:59PM 50.6152 -125.6186 306° West 444 511 38,000  Level FlightAware ADS-B (CYCD)
06:00PM 50.6539 -125.7022 306° West 443 510 38,000  Level FlightAware ADS-B (CYCD)
06:00PM 50.6840 -125.7690 305° West 446 513 38,000  Level FlightAware
06:00PM 50.7165 -125.8384 306° West 446 513 38,000  Level FlightAware ADS-B (CYCD)
06:01PM 50.7450 -125.9000 306° West 446 513 38,000  Level FlightAware
06:01PM 50.7740 -125.9640 306° West 447 514 38,000  Level FlightAware
06:02PM 50.8050 -126.0330 305° West 445 512 38,000  Level FlightAware
06:02PM 50.8531 -126.1385 306° West 441 507 38,000  Level FlightAware ADS-B (CYCD)
06:04PM 50.9370 -126.3220 306° West 442 509 38,000  Level FlightAware
06:04PM 50.9590 -126.3710 305° West 442 509 38,000  Level FlightAware
06:05PM 51.0210 -126.5080 306° West 442 509 38,000  Level FlightAware
06:06PM 51.0680 -126.6110 306° West 442 509 38,000  Level FlightAware
06:07PM 51.1060 -126.6930 306° West 442 509 38,000  Level FlightAware
06:07PM 51.1440 -126.7760 306° West 442 509 38,000  Level FlightAware
06:08PM 51.1680 -126.8300 305° West 442 509 38,000  Level FlightAware
06:08PM 51.2170 -126.9380 306° West 442 509 38,000  Level FlightAware
06:09PM 51.2800 -127.0750 306° West 442 509 38,000  Level FlightAware
06:10PM 51.2920 -127.1020 305° West 442 509 38,000  Level FlightAware
06:10PM 51.3280 -127.1810 306° West 442 509 38,000  Level FlightAware
06:11PM 51.3870 -127.3110 306° West 442 509 38,000  Level FlightAware
06:11PM 51.4080 -127.3590 305° West 442 509 38,000  Level FlightAware
06:12PM 51.4690 -127.4920 306° West 442 509 38,000  Level FlightAware
06:13PM 51.5050 -127.5730 306° West 442 509 38,000  Level FlightAware
06:13PM 51.5180 -127.6000 308° West 442 509 38,000  Level FlightAware
06:15PM 51.6833 -128.0833 308° West 450 518 38,000  Level Vancouver Center
06:16PM 51.7667 -128.2833 304° West 450 518 38,000  Level Vancouver Center
06:17PM 51.8167 -128.4167 301° West 450 518 38,000  Level Vancouver Center
06:18PM 51.9000 -128.5833 309° West 450 518 38,000  Level Vancouver Center
06:19PM 51.9500 -128.7500 296° West 450 518 38,000  Level Vancouver Center
06:20PM 52.0333 -128.9333 307° West 440 506 38,000  Level Vancouver Center
06:21PM 52.1000 -129.1000 303° West 440 506 38,000  Level Vancouver Center
06:22PM 52.1667 -129.2667 303° West 440 506 38,000  Level Vancouver Center
06:23PM 52.2333 -129.4500 301° West 440 506 38,000  Level Vancouver Center
06:24PM 52.3000 -129.5833 309° West 440 506 38,000  Level Vancouver Center
06:25PM 52.3833 -129.7833 304° West 450 518 38,000  Level Vancouver Center
06:26PM 52.4333 -129.9333 299° West 450 518 38,000  Level Vancouver Center
06:27PM 52.5000 -130.1167 301° West 450 518 38,000  Level Vancouver Center
06:28PM 52.5667 -130.2833 303° West 450 518 38,000  Level Vancouver Center
06:29PM 52.6333 -130.4667 301° West 450 518 38,000  Level Vancouver Center
06:30PM 52.7000 -130.6333 303° West 450 518 38,000  Level Vancouver Center
06:31PM 52.7500 -130.8167 294° West 450 518 38,000  Level Vancouver Center
06:32PM 52.8333 -130.9833 310° West 450 518 38,000  Level Vancouver Center
06:33PM 52.9000 -131.1667 301° West 450 518 38,000  Level Vancouver Center
06:34PM 52.9667 -131.3500 301° West 450 518 38,000  Level Vancouver Center
06:35PM 53.0333 -131.5167 304° West 450 518 38,000  Level Vancouver Center
06:36PM 53.1000 -131.7000 301° West 450 518 38,000  Level Vancouver Center
06:37PM 53.1667 -131.8833 301° West 460 529 38,000  Level Vancouver Center
06:38PM 53.2333 -132.0667 301° West 460 529 38,000  Level Vancouver Center
06:39PM 53.2833 -132.2500 295° West 460 529 38,000  Level Vancouver Center
06:40PM 53.3500 -132.4167 304° West 450 518 38,000  Level Vancouver Center
06:41PM 53.4167 -132.6000 301° West 460 529 38,000  Level Vancouver Center
06:42PM 53.4833 -132.7833 301° West 450 518 38,000  Level Vancouver Center
06:43PM 53.5333 -132.9667 295° West 450 518 38,000  Level Vancouver Center
06:44PM 53.6000 -133.1500 302° West 450 518 38,000  Level Vancouver Center
06:45PM 53.6667 -133.3333 302° West 450 518 38,000  Level Vancouver Center
06:46PM 53.7333 -133.5167 302° West 450 518 38,000  Level Vancouver Center
06:47PM 53.8000 -133.7000 302° West 460 529 38,000  Level Vancouver Center
06:48PM 53.8500 -133.8833 295° West 460 529 38,000  Level Vancouver Center
06:49PM 53.9500 -134.1167 306° West 460 529 38,000  Level Anchorage Center
06:50PM 53.9833 -134.2667 291° West 460 529 38,000 360 Level Vancouver Center
06:51PM 54.0333 -134.4833 292° West 460 529 38,600 600 Climbing Vancouver Center
06:52PM 54.1000 -134.6333 307° West 460 529 39,300 660 Climbing Vancouver Center
06:53PM 54.1667 -134.8333 300° West 460 529 40,000 300 Climbing Vancouver Center
06:54PM 54.2833 -134.9667 326° Northwest 460 529 40,000  Level Vancouver Center
06:55PM 54.3667 -135.1667 306° West 460 529 40,000  Level Vancouver Center
06:56PM 54.4333 -135.3000 311° West 460 529 40,000  Level Vancouver Center
06:57PM 54.5167 -135.4667 311° West 460 529 40,000  Level Vancouver Center
06:58PM 54.6000 -135.6667 306° West 460 529 40,000  Level Vancouver Center
06:59PM 54.6833 -135.8333 311° West 460 529 40,000  Level Vancouver Center
07:00PM 54.7667 -136.0167 308° West 470 541 40,000  Level Vancouver Center
07:01PM 54.8500 -136.1833 311° West 460 529 40,000  Level Vancouver Center
07:02PM 54.9167 -136.3500 305° West 470 541 40,000  Level Vancouver Center
07:03PM 55.0000 -136.5500 306° West 460 529 40,000  Level Vancouver Center
07:04PM 55.0833 -136.7167 311° West 460 529 40,000  Level Vancouver Center
07:05PM 55.1667 -136.9000 309° West 470 541 40,000  Level Vancouver Center
07:06PM 55.2500 -137.0667 311° West 470 541 40,000  Level Vancouver Center
07:07PM 55.3333 -137.2833 304° West 470 541 40,000  Level Vancouver Center
07:08PM 55.4167 -137.4500 311° West 480 552 40,000  Level Vancouver Center
07:09PM 55.4833 -137.6333 303° West 480 552 40,000  Level Vancouver Center
07:10PM 55.5667 -137.8333 306° West 480 552 40,000  Level Vancouver Center
07:10PM 55.6000 -137.8333 360° North 470 541 40,000  Level Anchorage Center
07:11PM 55.6833 -138.0167 309° West 480 552 40,000  Level Anchorage Center
07:12PM 55.7167 -138.1833 290° West 480 552 40,000  Level Vancouver Center
07:13PM 55.8000 -138.3667 309° West 490 564 40,000  Level Vancouver Center
07:14PM 55.8833 -138.5500 309° West 490 564 40,000  Level Vancouver Center
07:15PM 55.9500 -138.7667 299° West 490 564 40,000  Level Vancouver Center
07:15PM 56.0167 -138.8000 344° North 480 552 40,000  Level Anchorage Center
07:16PM 56.1000 -138.9833 309° West 490 564 40,000  Level Anchorage Center
07:17PM 56.1667 -139.1833 301° West 480 552 40,000  Level Anchorage Center
07:18PM 56.2500 -139.3833 307° West 470 541 40,000  Level Anchorage Center
07:19PM 56.3333 -139.5667 309° West 480 552 40,000  Level Anchorage Center
07:20PM 56.4000 -139.7667 301° West 470 541 40,000  Level Anchorage Center
07:21PM 56.4833 -139.9667 307° West 480 552 40,000  Level Anchorage Center
07:22PM 56.5167 -140.1500 288° West 490 564 40,000  Level Vancouver Center
07:23PM 56.5500 -140.3500 287° West 480 552 40,000  Level Vancouver Center
07:24PM 56.6000 -140.5500 294° West 470 541 40,000  Level Vancouver Center
07:24PM 56.6500 -140.6000 331° Northwest 460 529 40,000  Level Anchorage Center
07:25PM 56.7000 -140.8333 291° West 460 529 40,000  Level Anchorage Center
07:26PM 56.7500 -141.0500 293° West 460 529 40,000  Level Anchorage Center
07:27PM 56.8000 -141.2667 293° West 460 529 40,000  Level Anchorage Center
07:28PM 56.8500 -141.4833 293° West 460 529 40,000  Level Anchorage Center
07:29PM 56.9000 -141.6500 299° West 460 529 40,000  Level Anchorage Center
07:30PM 56.9500 -141.8667 293° West 460 529 40,000  Level Anchorage Center
07:31PM 57.0000 -142.0833 293° West 460 529 40,000  Level Anchorage Center
07:32PM 57.0500 -142.3000 293° West 460 529 40,000  Level Anchorage Center
07:33PM 57.1000 -142.5333 292° West 460 529 40,000  Level Anchorage Center
07:34PM 57.1500 -142.7500 293° West 460 529 40,000  Level Anchorage Center
07:35PM 57.2000 -142.9833 292° West 450 518 40,000  Level Anchorage Center
07:36PM 57.2500 -143.2000 293° West 460 529 40,000  Level Anchorage Center
07:37PM 57.3000 -143.4333 292° West 460 529 40,000  Level Anchorage Center
07:38PM 57.3500 -143.6500 293° West 470 541 40,000  Level Anchorage Center
07:39PM 57.3833 -143.8833 285° West 470 541 40,000  Level Anchorage Center
07:40PM 57.4333 -144.1000 293° West 460 529 40,000  Level Anchorage Center
07:41PM 57.4833 -144.3333 292° West 470 541 40,000  Level Anchorage Center
07:42PM 57.5333 -144.5667 292° West 460 529 40,000  Level Anchorage Center
07:43PM 57.5833 -144.7833 293° West 460 529 40,000  Level Anchorage Center
07:44PM 57.6167 -145.0167 285° West 470 541 40,000  Level Anchorage Center
07:45PM 57.6667 -145.2333 293° West 460 529 40,000  Level Anchorage Center
07:46PM 57.7167 -145.4667 292° West 460 529 40,000  Level Anchorage Center
07:47PM 57.7500 -145.7000 285° West 470 541 40,000  Level Anchorage Center
07:48PM 57.8000 -145.9167 293° West 460 529 40,000  Level Anchorage Center
07:49PM 57.8500 -146.1500 292° West 470 541 40,000  Level Anchorage Center
07:50PM 57.8833 -146.3833 285° West 460 529 40,000  Level Anchorage Center
07:51PM 57.9333 -146.6167 292° West 460 529 40,000  Level Anchorage Center
07:52PM 57.9667 -146.8500 285° West 470 541 40,000  Level Anchorage Center
07:53PM 58.0167 -147.0833 292° West 460 529 40,000  Level Anchorage Center
07:54PM 58.0500 -147.3167 285° West 460 529 40,000  Level Anchorage Center
07:55PM 58.1000 -147.5500 292° West 470 541 40,000  Level Anchorage Center
07:56PM 58.1333 -147.7833 285° West 460 529 40,000  Level Anchorage Center
07:57PM 58.1667 -148.0167 285° West 460 529 40,000  Level Anchorage Center
07:58PM 58.2167 -148.2500 292° West 450 518 40,000  Level Anchorage Center
07:59PM 58.2500 -148.4833 285° West 460 529 40,000  Level Anchorage Center
08:04PM 58.4420 -149.6220 285° West 466 536 40,000  Level FlightAware
08:05PM 58.4680 -149.7920 286° West 467 537 40,000  Level FlightAware
08:05PM 58.4930 -149.9540 287° West 467 537 40,000  Level FlightAware
08:06PM 58.5220 -150.1610 285° West 467 537 40,000  Level FlightAware
08:07PM 58.5440 -150.3240 285° West 467 537 40,000  Level FlightAware
08:08PM 58.5680 -150.4910 285° West 467 537 40,000  Level FlightAware
08:09PM 58.5680 -150.7830 270° West 462 532 40,000  Level FlightAware
08:09PM 58.5750 -150.8650 279° West 462 532 40,000  Level FlightAware
08:10PM 58.5850 -150.9890 279° West 462 532 40,000  Level FlightAware
08:10PM 58.5950 -151.1130 279° West 462 532 40,000  Level FlightAware
08:11PM 58.6150 -151.3660 279° West 461 531 40,000  Level FlightAware
08:12PM 58.6300 -151.5580 279° West 462 532 40,000  Level FlightAware
08:13PM 58.6470 -151.7710 279° West 460 529 40,000  Level FlightAware
08:14PM 58.6610 -151.9590 278° West 461 531 40,000  Level FlightAware
08:14PM 58.6700 -152.0920 277° West 462 532 40,000  Level FlightAware
08:15PM 58.6890 -152.3680 278° West 463 533 40,000  Level FlightAware
08:16PM 58.6940 -152.4520 277° West 463 533 40,000  Level FlightAware
08:17PM 58.7150 -152.7260 279° West 461 531 40,000  Level FlightAware
08:18PM 58.7280 -152.9300 277° West 461 531 40,000  Level FlightAware
08:18PM 58.7330 -153.0130 277° West 461 531 40,000  Level FlightAware
08:19PM 58.7440 -153.1800 277° West 461 531 40,000  Level FlightAware
08:19PM 58.7520 -153.3050 277° West 461 531 40,000  Level FlightAware
08:20PM 58.7600 -153.4290 277° West 461 531 40,000  Level FlightAware
08:21PM 58.7700 -153.5960 277° West 461 531 40,000  Level FlightAware
08:22PM 58.7810 -153.7660 277° West 461 531 40,000  Level FlightAware
08:23PM 58.7940 -153.9750 277° West 461 531 40,000  Level FlightAware
08:23PM 58.8020 -154.1000 277° West 461 531 40,000  Level FlightAware
08:24PM 58.8130 -154.2660 277° West 461 531 40,000  Level FlightAware
08:24PM 58.8180 -154.3500 277° West 461 531 40,000  Level FlightAware
08:25PM 58.8260 -154.4780 277° West 461 531 40,000  Level FlightAware
08:26PM 58.8370 -154.6450 277° West 461 531 40,000  Level FlightAware
08:27PM 58.8480 -154.8120 277° West 461 531 40,000  Level FlightAware
08:28PM 58.8667 -155.4667 277° West 450 518 40,000  Level Anchorage Center
08:29PM 58.8667 -155.7167 270° West 450 518 40,000  Level Anchorage Center
08:30PM 58.8833 -155.9667 277° West 460 529 40,000  Level Anchorage Center
08:31PM 58.9000 -156.2000 278° West 450 518 40,000  Level Anchorage Center
08:32PM 58.9000 -156.4500 270° West 450 518 40,000  Level Anchorage Center
08:33PM 58.9167 -156.7333 277° West 450 518 40,000  Level Anchorage Center
08:34PM 58.9167 -156.9667 270° West 450 518 40,000  Level Anchorage Center
08:35PM 58.9333 -157.2167 277° West 450 518 40,000  Level Anchorage Center
08:36PM 58.9333 -157.4167 270° West 450 518 40,000  Level Anchorage Center
08:37PM 58.9500 -157.7000 277° West 460 529 40,000  Level Anchorage Center
08:38PM 58.9500 -157.9500 270° West 460 529 40,000  Level Anchorage Center
08:39PM 58.9667 -158.2000 277° West 450 518 40,000  Level Anchorage Center
08:40PM 58.9667 -158.4500 270° West 450 518 40,000  Level Anchorage Center
08:41PM 58.9667 -158.6833 270° West 460 529 40,000  Level Anchorage Center
08:42PM 58.9667 -158.9333 270° West 450 518 40,000  Level Anchorage Center
08:43PM 58.9833 -159.1833 277° West 450 518 40,000  Level Anchorage Center
08:44PM 58.9833 -159.4333 270° West 450 518 40,000  Level Anchorage Center
08:45PM 58.9833 -159.6500 270° West 450 518 40,000  Level Anchorage Center
08:46PM 59.0000 -159.9000 277° West 450 518 40,000  Level Anchorage Center
08:47PM 58.9833 -160.1333 262° West 450 518 40,000  Level Anchorage Center
08:48PM 58.9667 -160.3833 263° West 450 518 40,000  Level Anchorage Center
08:49PM 58.9500 -160.6333 263° West 450 518 40,000  Level Anchorage Center
08:50PM 58.9500 -160.8667 270° West 450 518 40,000  Level Anchorage Center
08:51PM 58.9333 -161.1167 263° West 450 518 40,000  Level Anchorage Center
08:52PM 58.9000 -161.4000 257° West 450 518 40,000  Level Anchorage Center
08:53PM 58.9000 -161.6333 270° West 450 518 40,000  Level Anchorage Center
08:54PM 58.8833 -161.8833 263° West 450 518 40,000  Level Anchorage Center
08:55PM 58.8667 -162.1167 262° West 450 518 40,000  Level Anchorage Center
08:56PM 58.8500 -162.3500 262° West 440 506 40,000  Level Anchorage Center
08:57PM 58.8333 -162.5833 262° West 440 506 40,000  Level Anchorage Center
08:58PM 58.8167 -162.8333 263° West 450 518 40,000  Level Anchorage Center
08:59PM 58.7833 -163.0667 255° West 450 518 40,000  Level Anchorage Center
09:00PM 58.7667 -163.3000 262° West 450 518 40,000  Level Anchorage Center
09:01PM 58.7500 -163.5333 262° West 440 506 40,000  Level Anchorage Center
09:02PM 58.7333 -163.7833 263° West 460 529 40,000  Level Anchorage Center
09:03PM 58.7167 -164.0167 262° West 450 518 40,000  Level Anchorage Center
09:04PM 58.7000 -164.2500 262° West 440 506 40,000  Level Anchorage Center
09:05PM 58.6667 -164.5000 256° West 440 506 40,000  Level Anchorage Center
09:06PM 58.6500 -164.7333 262° West 450 518 40,000  Level Anchorage Center
09:07PM 58.6333 -164.9667 262° West 450 518 40,000  Level Anchorage Center
09:08PM 58.6000 -165.2667 258° West 450 518 40,000  Level Anchorage Center
09:09PM 58.5833 -165.5000 262° West 450 518 40,000  Level Anchorage Center
09:10PM 58.5500 -165.7500 256° West 450 518 40,000  Level Anchorage Center
09:11PM 58.5333 -165.9833 262° West 450 518 40,000  Level Anchorage Center
09:12PM 58.5000 -166.2333 256° West 450 518 40,000  Level Anchorage Center
09:13PM 58.4833 -166.4667 262° West 450 518 40,000  Level Anchorage Center
09:14PM 58.4500 -166.7000 255° West 450 518 40,000  Level Anchorage Center
09:15PM 58.4333 -166.9000 261° West 440 506 40,000  Level Anchorage Center
09:16PM 58.4000 -167.1333 255° West 450 518 40,000  Level Anchorage Center
09:17PM 58.3833 -167.3833 263° West 460 529 40,000  Level Anchorage Center
09:18PM 58.3500 -167.6167 255° West 450 518 40,000  Level Anchorage Center
09:19PM 58.3167 -167.8667 256° West 450 518 40,000  Level Anchorage Center
09:20PM 58.3000 -168.0833 262° West 450 518 40,000  Level Anchorage Center
09:21PM 58.2667 -168.3333 256° West 450 518 40,000  Level Anchorage Center
09:22PM 58.2333 -168.5667 255° West 460 529 40,000  Level Anchorage Center
09:23PM 58.2000 -168.8000 255° West 460 529 40,000  Level Anchorage Center
09:24PM 58.1833 -169.0333 262° West 450 518 40,000  Level Anchorage Center
09:25PM 58.1500 -169.2667 255° West 460 529 40,000  Level Anchorage Center
09:26PM 58.1167 -169.5167 256° West 460 529 40,000  Level Anchorage Center
09:27PM 58.0833 -169.7500 255° West 450 518 40,000  Level Anchorage Center
09:28PM 58.0500 -169.9833 255° West 450 518 40,000  Level Anchorage Center
09:29PM 58.0167 -170.2167 255° West 460 529 40,000  Level Anchorage Center
09:30PM 57.9833 -170.4333 254° West 450 518 40,000  Level Anchorage Center
09:31PM 57.9500 -170.6667 255° West 440 506 40,000  Level Anchorage Center
09:32PM 57.9167 -170.9000 255° West 450 518 40,000  Level Anchorage Center
09:33PM 57.8833 -171.1167 254° West 440 506 40,000  Level Anchorage Center
09:34PM 57.8500 -171.3500 255° West 450 518 40,000  Level Anchorage Center
09:35PM 57.8167 -171.5667 254° West 450 518 40,000  Level Anchorage Center
09:36PM 57.7667 -171.8000 248° West 450 518 40,000  Level Anchorage Center
09:37PM 57.7333 -172.0167 254° West 450 518 40,000  Level Anchorage Center
09:38PM 57.6833 -172.2333 247° West 450 518 40,000  Level Anchorage Center
09:39PM 57.6500 -172.4667 255° West 460 529 40,000  Level Anchorage Center
09:40PM 57.6000 -172.6833 247° West 450 518 40,000  Level Anchorage Center
09:41PM 57.5667 -172.9167 255° West 460 529 40,000  Level Anchorage Center
09:42PM 57.5167 -173.1333 247° West 450 518 40,000  Level Anchorage Center
09:43PM 57.4833 -173.3500 254° West 450 518 40,000  Level Anchorage Center
09:44PM 57.4333 -173.5833 248° West 450 518 40,000  Level Anchorage Center
09:45PM 57.4000 -173.8000 254° West 450 518 40,000  Level Anchorage Center
09:46PM 57.3500 -174.0167 247° West 460 529 40,000  Level Anchorage Center
09:47PM 57.3167 -174.2500 255° West 460 529 40,000  Level Anchorage Center
09:48PM 57.2667 -174.4667 247° West 450 518 40,000  Level Anchorage Center
09:49PM 57.2167 -174.6833 247° West 450 518 40,000  Level Anchorage Center
09:50PM 57.1667 -174.9167 249° West 450 518 40,000  Level Anchorage Center
09:51PM 57.1333 -175.1333 254° West 460 529 40,000  Level Anchorage Center
09:52PM 57.0833 -175.3500 247° West 460 529 40,000  Level Anchorage Center
09:53PM 57.0500 -175.5667 254° West 450 518 40,000  Level Anchorage Center
09:55PM 57.0037 -175.7828 249° West  Level FlightAware Approximate
10:02PM 56.6752 -177.2561 248° West  Level FlightAware Approximate
10:03PM 56.6269 -177.4644 247° West  Level FlightAware Approximate
10:04PM 56.5782 -177.6723 247° West  Level FlightAware Approximate
10:04PM 56.5500 -177.7833 247° West 468 539 40,000  Level Anchorage Center
10:05PM 56.5292 -177.8795 247° West  Level FlightAware Approximate
10:06PM 56.4798 -178.0863 247° West  Level FlightAware Approximate
10:07PM 56.4301 -178.2925 247° West  Level FlightAware Approximate
10:08PM 56.3800 -178.4982 246° West  Level FlightAware Approximate
10:09PM 56.3296 -178.7033 246° West  Level FlightAware Approximate
10:10PM 56.2247 -179.1210 246° West 468 539 40,000  Level FlightAware Transoceanic
10:11PM 56.1691 -179.3417 246° West 468 539 40,000  Level FlightAware Transoceanic
10:12PM 56.1132 -179.5618 245° Southwest 468 539 40,000  Level FlightAware Transoceanic
10:13PM 56.0568 -179.7812 245° Southwest 468 539 40,000  Level FlightAware Transoceanic
10:13PM 56.0500 -179.8333 242° Southwest 475 547 40,000  Level Anchorage Center
10:14PM 56.0000 -180.0000 260° West 468 539 40,000  Level FlightAware Transoceanic
10:14PM 56.0000 180.0000 260° West 475 547 40,000  Level Anchorage Center
10:15PM 55.9782 179.7780 260° West 468 539 40,000  Level FlightAware Transoceanic
10:16PM 55.9559 179.5562 260° West 468 539 40,000  Level FlightAware Transoceanic
10:17PM 55.9333 179.3347 260° West 468 539 40,000  Level FlightAware Transoceanic
10:18PM 55.9102 179.1135 259° West 468 539 40,000  Level FlightAware Transoceanic
10:19PM 55.8868 178.8925 259° West 475 547 40,000  Level FlightAware Transoceanic
10:20PM 55.8590 178.6351 259° West 475 547 40,000  Level FlightAware Transoceanic
10:21PM 55.8340 178.4086 259° West 475 547 40,000  Level FlightAware Transoceanic
10:22PM 55.8086 178.1824 259° West 475 547 40,000  Level FlightAware Transoceanic
10:23PM 55.7828 177.9565 258° West 475 547 40,000  Level FlightAware Transoceanic
10:23PM 55.7833 177.9500 258° West 474 545 40,000  Level Anchorage Center
10:24PM 55.7566 177.7309 258° West 475 547 40,000  Level FlightAware Transoceanic
10:25PM 55.7300 177.5056 258° West 475 547 40,000  Level FlightAware Transoceanic
10:26PM 55.7030 177.2806 258° West 475 547 40,000  Level FlightAware Transoceanic
10:27PM 55.6755 177.0559 258° West 475 547 40,000 900 Level FlightAware Transoceanic
10:27PM 55.6667 177.0333 257° West 490 564 41,000  Climbing Anchorage Center
10:28PM 55.6477 176.8315 257° West 475 547 40,000  Descending FlightAware Transoceanic
10:28PM 55.6333 176.8333 254° West 490 564 41,000  Climbing Anchorage Center
10:29PM 55.6197 176.6025 257° West 474 545 40,000  Descending FlightAware Transoceanic
10:29PM 55.6000 176.5833 257° West 490 564 41,000  Climbing Anchorage Center
10:30PM 55.5910 176.3790 257° West 474 545 40,000  Descending FlightAware Transoceanic
10:30PM 55.5833 176.3833 262° West 480 552 41,000  Climbing Anchorage Center
10:31PM 55.5619 176.1559 257° West 474 545 40,000  Descending FlightAware Transoceanic
10:31PM 55.5500 176.1333 257° West 480 552 41,000  Climbing Anchorage Center
10:32PM 55.5324 175.9330 257° West 474 545 40,000  Descending FlightAware Transoceanic
10:32PM 55.5167 175.9167 255° West 480 552 41,000 840 Climbing Anchorage Center
10:33PM 55.4833 175.6667 257° West 480 552 41,000  Level Anchorage Center
10:34PM 55.4500 175.4167 257° West 480 552 41,000  Level Anchorage Center
10:35PM 55.4167 175.2167 254° West 480 552 41,000  Level Anchorage Center
10:36PM 55.3833 174.9833 256° West 480 552 41,000  Level Anchorage Center
10:37PM 55.3667 174.7833 262° West 480 552 41,000  Level Anchorage Center
10:38PM 55.3167 174.5333 251° West 480 552 41,000  Level Anchorage Center
10:39PM 55.3000 174.3333 262° West 480 552 41,000  Level Anchorage Center
10:40PM 55.2667 174.0833 257° West 480 552 41,000  Level Anchorage Center
10:41PM 55.2333 173.8833 254° West 480 552 41,000  Level Anchorage Center
10:42PM 55.1833 173.6333 251° West 480 552 41,000  Level Anchorage Center
10:43PM 55.1500 173.3833 257° West 480 552 41,000  Level Anchorage Center
10:44PM 55.1167 173.2000 252° West 480 552 41,000  Level Anchorage Center
10:45PM 55.0833 172.9500 257° West 480 552 41,000  Level Anchorage Center
10:46PM 55.0500 172.7500 254° West 480 552 41,000  Level Anchorage Center
10:47PM 55.0167 172.5167 256° West 490 564 41,000  Level Anchorage Center
10:48PM 54.9833 172.3167 254° West 480 552 41,000  Level Anchorage Center
10:49PM 54.9333 172.0833 250° West 480 552 41,000  Level Anchorage Center
10:50PM 54.8667 171.8500 244° Southwest 470 541 41,000  Level Anchorage Center
10:51PM 54.8000 171.7000 232° Southwest 470 541 41,000  Level Anchorage Center
10:52PM 54.7167 171.4833 236° Southwest 470 541 41,000  Level Anchorage Center
10:53PM 54.6500 171.3167 235° Southwest 490 564 41,000  Level Anchorage Center
10:54PM 54.5667 171.1333 232° Southwest 470 541 41,000  Level Anchorage Center
10:55PM 54.5000 170.9500 238° Southwest 500 575 41,000  Level Anchorage Center
10:56PM 54.4167 170.7667 232° Southwest 480 552 41,000  Level Anchorage Center
10:57PM 54.3500 170.6000 236° Southwest 460 529 41,000  Level Anchorage Center
10:58PM 54.2667 170.4000 235° Southwest 490 564 41,000  Level Anchorage Center
10:59PM 54.1833 170.2167 232° Southwest 480 552 41,000  Level Anchorage Center
11:00PM 54.1000 170.0500 230° Southwest 480 552 41,000  Level Anchorage Center
11:01PM 54.0167 169.8667 232° Southwest 480 552 41,000  Level Anchorage Center
11:02PM 53.9500 169.7000 236° Southwest 470 541 41,000  Level Anchorage Center
11:03PM 53.8667 169.5167 232° Southwest 470 541 41,000  Level Anchorage Center
11:04PM 53.8000 169.3500 236° Southwest 490 564 41,000  Level Anchorage Center
11:05PM 53.7167 169.1667 233° Southwest 490 564 41,000  Level Anchorage Center
11:06PM 53.6333 168.9500 237° Southwest 490 564 41,000  Level Anchorage Center
11:07PM 53.5833 168.7833 243° Southwest 470 541 41,000  Level Anchorage Center
11:08PM 53.5167 168.5667 243° Southwest 470 541 41,000  Level Anchorage Center
11:10PM 53.4167 168.2333 239° Southwest 474 545 41,000  Level Anchorage Center
11:11PM 53.3333 168.0000 239° Southwest 475 547 41,000  Level Anchorage Center
11:16PM 53.0090 167.0996 239° Southwest 474 545 41,000  Level FlightAware Transoceanic
11:17PM 52.9276 166.8812 238° Southwest 475 547 41,000  Level FlightAware Transoceanic
11:18PM 52.8590 166.6967 238° Southwest 475 547 41,000  Level FlightAware Transoceanic
11:19PM 52.7901 166.5129 238° Southwest 475 547 41,000  Level FlightAware Transoceanic
11:20PM 52.7209 166.3296 238° Southwest 475 547 41,000  Level FlightAware Transoceanic
11:20PM 52.6667 166.2167 238° Southwest 478 550 41,000  Level Anchorage Center
11:21PM 52.6514 166.1470 238° Southwest 475 547 41,000  Level FlightAware Transoceanic
11:22PM 52.5816 165.9649 238° Southwest 475 547 41,000  Level FlightAware Transoceanic
11:23PM 52.5116 165.7834 238° Southwest 475 547 41,000  Level FlightAware Transoceanic
11:24PM 52.4413 165.6024 237° Southwest 475 547 41,000  Level FlightAware Transoceanic
11:25PM 52.3707 165.4221 237° Southwest 475 547 41,000  Level FlightAware Transoceanic
11:26PM 52.2998 165.2423 237° Southwest 475 547 41,000  Level FlightAware Transoceanic
11:27PM 52.2378 165.1023 237° Southwest 478 550 41,000  Level FlightAware Transoceanic
11:28PM 52.1653 164.9187 237° Southwest 478 550 41,000  Level FlightAware Transoceanic
11:29PM 52.0925 164.7357 237° Southwest 478 550 41,000  Level FlightAware Transoceanic
11:30PM 52.0195 164.5532 237° Southwest 478 550 41,000  Level FlightAware Transoceanic
11:30PM 52.0000 164.4833 236° Southwest 466 536 41,000  Level Anchorage Center
11:31PM 51.9461 164.3714 237° Southwest 478 550 41,000  Level FlightAware Transoceanic
11:32PM 51.8725 164.1902 237° Southwest 478 550 41,000  Level FlightAware Transoceanic
11:33PM 51.7986 164.0095 236° Southwest 478 550 41,000  Level FlightAware Transoceanic
11:34PM 51.7244 163.8295 236° Southwest 478 550 41,000  Level FlightAware Transoceanic
11:35PM 51.6500 163.6500 236° Southwest 478 550 41,000  Level FlightAware Transoceanic
11:35PM 51.6500 163.6500 236° Southwest 474 545 41,000  Level Anchorage Center
11:36PM 51.5813 163.4843 236° Southwest 466 536 41,000  Level FlightAware Transoceanic
11:37PM 51.5123 163.3192 236° Southwest 466 536 41,000  Level FlightAware Transoceanic
11:38PM 51.4431 163.1546 236° Southwest 466 536 41,000  Level FlightAware Transoceanic
11:39PM 51.3737 162.9904 236° Southwest 466 536 41,000  Level FlightAware Transoceanic
11:40PM 51.3041 162.8268 236° Southwest 466 536 41,000  Level FlightAware Transoceanic
11:40PM 51.3000 162.8167 236° Southwest 471 542 41,000  Level Anchorage Center
11:41PM 51.2181 162.6260 236° Southwest 474 545 41,000  Level FlightAware Transoceanic
11:42PM 51.1452 162.4572 235° Southwest 474 545 41,000  Level FlightAware Transoceanic
11:43PM 51.0721 162.2890 235° Southwest 474 545 41,000  Level FlightAware Transoceanic
11:44PM 50.9988 162.1213 235° Southwest 474 545 41,000  Level FlightAware Transoceanic
11:45PM 50.9252 161.9541 235° Southwest 474 545 41,000  Level FlightAware Transoceanic
11:46PM 50.8582 161.8024 235° Southwest 471 542 41,000  Level FlightAware Transoceanic
11:47PM 50.7837 161.6352 235° Southwest 471 542 41,000  Level FlightAware Transoceanic
11:48PM 50.7090 161.4685 235° Southwest 471 542 41,000  Level FlightAware Transoceanic
11:49PM 50.6341 161.3024 234° Southwest 471 542 41,000  Level FlightAware Transoceanic
11:49PM 50.5833 161.2000 235° Southwest 467 537 41,000  Level Anchorage Center
11:50PM 50.5589 161.1369 234° Southwest 471 542 41,000  Level FlightAware Transoceanic
11:51PM 50.4835 160.9718 234° Southwest 471 542 41,000  Level FlightAware Transoceanic
11:52PM 50.4078 160.8073 234° Southwest 471 542 41,000  Level FlightAware Transoceanic
11:53PM 50.3319 160.6433 234° Southwest 471 542 41,000  Level FlightAware Transoceanic
11:54PM 50.2558 160.4798 234° Southwest 471 542 41,000  Level FlightAware Transoceanic
11:55PM 50.1795 160.3168 234° Southwest 471 542 41,000  Level FlightAware Transoceanic
11:56PM 50.0813 160.1127 234° Southwest 467 537 41,000  Level FlightAware Transoceanic
11:57PM 50.0088 159.9592 234° Southwest 467 537 41,000  Level FlightAware Transoceanic
11:58PM 49.9361 159.8062 233° Southwest 467 537 41,000  Level FlightAware Transoceanic
11:59PM 49.8631 159.6537 233° Southwest 467 537 41,000  Level FlightAware Transoceanic
12:00AM 49.7900 159.5016 233° Southwest 467 537 41,000  Level FlightAware Transoceanic
12:01AM 49.7167 159.3500 233° Southwest 467 537 41,000  Level FlightAware Transoceanic
12:02AM 49.6428 159.1993 233° Southwest 467 537 41,000  Level FlightAware Transoceanic
12:03AM 49.5688 159.0490 233° Southwest 467 537 41,000  Level FlightAware Transoceanic
12:04AM 49.4946 158.8992 233° Southwest 467 537 41,000  Level FlightAware Transoceanic
12:05AM 49.4202 158.7499 232° Southwest 467 537 41,000  Level FlightAware Transoceanic
12:06AM 49.3456 158.6010 232° Southwest 467 537 41,000  Level FlightAware Transoceanic
12:07AM 49.2709 158.4526 232° Southwest 467 537 41,000  Level FlightAware Transoceanic
12:08AM 49.1959 158.3046 232° Southwest 467 537 41,000  Level FlightAware Transoceanic
12:09AM 49.1207 158.1571 232° Southwest 467 537 41,000  Level FlightAware Transoceanic
12:10AM 49.0454 158.0100 232° Southwest 467 537 41,000  Level FlightAware Transoceanic
12:11AM 48.9698 157.8633 232° Southwest 467 537 41,000  Level FlightAware Transoceanic
12:12AM 48.8941 157.7171 232° Southwest 467 537 41,000  Level FlightAware Transoceanic
12:13AM 48.8182 157.5714 232° Southwest 467 537 41,000  Level FlightAware Transoceanic
12:14AM 48.7421 157.4261 231° Southwest 467 537 41,000  Level FlightAware Transoceanic
12:15AM 48.6659 157.2812 231° Southwest 467 537 41,000  Level FlightAware Transoceanic
12:16AM 48.5894 157.1367 231° Southwest 467 537 41,000  Level FlightAware Transoceanic
12:17AM 48.5128 156.9927 231° Southwest 467 537 41,000  Level FlightAware Transoceanic
12:18AM 48.4360 156.8492 231° Southwest 467 537 41,000  Level FlightAware Transoceanic
12:19AM 48.3590 156.7060 231° Southwest 467 537 41,000  Level FlightAware Transoceanic
12:20AM 48.2818 156.5633 231° Southwest 467 537 41,000  Level FlightAware Transoceanic
12:21AM 48.2045 156.4211 231° Southwest 467 537 41,000  Level FlightAware Transoceanic
12:22AM 48.1270 156.2792 231° Southwest 467 537 41,000  Level FlightAware Transoceanic
12:23AM 48.0493 156.1378 231° Southwest 467 537 41,000  Level FlightAware Transoceanic
12:24AM 47.9714 155.9968 230° Southwest 467 537 41,000  Level FlightAware Transoceanic
12:25AM 47.8934 155.8563 230° Southwest 467 537 41,000  Level FlightAware Transoceanic
12:26AM 47.8152 155.7162 230° Southwest 467 537 41,000  Level FlightAware Transoceanic
12:27AM 47.7368 155.5764 230° Southwest 467 537 41,000  Level FlightAware Transoceanic
12:28AM 47.6583 155.4371 230° Southwest 467 537 41,000  Level FlightAware Transoceanic
12:29AM 47.5796 155.2983 230° Southwest 467 537 41,000  Level FlightAware Transoceanic
12:30AM 47.5007 155.1598 230° Southwest 467 537 41,000  Level FlightAware Transoceanic
12:31AM 47.4216 155.0218 230° Southwest 467 537 41,000  Level FlightAware Transoceanic
12:32AM 47.3424 154.8841 230° Southwest 467 537 41,000  Level FlightAware Transoceanic
12:33AM 47.2631 154.7469 229° Southwest 467 537 41,000  Level FlightAware Transoceanic
12:34AM 47.1835 154.6101 229° Southwest 467 537 41,000  Level FlightAware Transoceanic
12:35AM 47.1038 154.4737 229° Southwest 467 537 41,000  Level FlightAware Transoceanic
12:36AM 47.0240 154.3377 229° Southwest 467 537 41,000  Level FlightAware Transoceanic
12:37AM 46.9439 154.2022 229° Southwest 467 537 41,000  Level FlightAware Transoceanic
12:38AM 46.8638 154.0670 229° Southwest 467 537 41,000  Level FlightAware Transoceanic
12:39AM 46.7834 153.9322 229° Southwest 467 537 41,000  Level FlightAware Transoceanic
12:40AM 46.7029 153.7979 229° Southwest 467 537 41,000  Level FlightAware Transoceanic
12:41AM 46.6223 153.6639 229° Southwest 467 537 41,000  Level FlightAware Transoceanic
12:42AM 46.5415 153.5303 229° Southwest 467 537 41,000  Level FlightAware Transoceanic
12:43AM 46.4605 153.3971 228° Southwest 467 537 41,000  Level FlightAware Transoceanic
12:44AM 46.3794 153.2644 228° Southwest 467 537 41,000  Level FlightAware Transoceanic
12:45AM 46.2981 153.1320 228° Southwest 467 537 41,000  Level FlightAware Transoceanic
12:46AM 46.2147 152.9968 228° Southwest  Level FlightAware Approximate
12:47AM 46.2127 152.9937 228° Southwest  Level FlightAware Approximate
12:48AM 46.1287 152.8596 228° Southwest  Level FlightAware Approximate
12:49AM 46.0444 152.7260 228° Southwest  Level FlightAware Approximate
12:50AM 45.9601 152.5927 228° Southwest  Level FlightAware Approximate
12:51AM 45.8755 152.4599 228° Southwest  Level FlightAware Approximate
12:52AM 45.7909 152.3275 228° Southwest  Level FlightAware Approximate
12:53AM 45.7060 152.1954 227° Southwest  Level FlightAware Approximate
12:54AM 45.6211 152.0638 227° Southwest  Level FlightAware Approximate
12:55AM 45.5359 151.9326 227° Southwest  Level FlightAware Approximate
12:56AM 45.4506 151.8017 227° Southwest  Level FlightAware Approximate
12:57AM 45.3652 151.6713 227° Southwest  Level FlightAware Approximate
12:58AM 45.2796 151.5412 227° Southwest  Level FlightAware Approximate
12:59AM 45.1939 151.4116 227° Southwest  Level FlightAware Approximate
01:00AM 45.1080 151.2823 227° Southwest  Level FlightAware Approximate
01:01AM 45.0220 151.1534 227° Southwest  Level FlightAware Approximate
01:02AM 44.9359 151.0249 227° Southwest  Level FlightAware Approximate
01:03AM 44.8495 150.8969 226° Southwest  Level FlightAware Approximate
01:04AM 44.7631 150.7691 226° Southwest  Level FlightAware Approximate
01:05AM 44.6765 150.6418 226° Southwest  Level FlightAware Approximate
01:06AM 44.5898 150.5148 226° Southwest  Level FlightAware Approximate
01:07AM 44.5029 150.3882 226° Southwest  Level FlightAware Approximate
01:08AM 44.4159 150.2621 226° Southwest  Level FlightAware Approximate
01:09AM 44.3297 150.1376 226° Southwest  Level FlightAware Approximate
01:10AM 44.2433 150.0134 226° Southwest  Level FlightAware Approximate
01:11AM 44.1568 149.8897 226° Southwest  Level FlightAware Approximate
01:12AM 44.0702 149.7663 226° Southwest  Level FlightAware Approximate
01:13AM 43.9835 149.6433 226° Southwest  Level FlightAware Approximate
01:14AM 43.8966 149.5206 226° Southwest  Level FlightAware Approximate
01:15AM 43.8096 149.3983 225° Southwest  Level FlightAware Approximate
01:16AM 43.7224 149.2764 225° Southwest  Level FlightAware Approximate
01:17AM 43.6352 149.1548 225° Southwest  Level FlightAware Approximate
01:17AM 43.4830 148.9440 225° Southwest 422 486 41,000  Level FlightAware
01:18AM 43.5477 149.0335 225° Southwest  Level FlightAware Approximate
01:18AM 43.4430 148.8880 225° Southwest 422 486 41,000  Level FlightAware
01:19AM 43.3590 148.7730 225° Southwest 428 493 41,000  Level FlightAware
01:20AM 43.2880 148.6760 225° Southwest 421 484 41,000  Level FlightAware
01:20AM 43.2480 148.6210 225° Southwest 420 483 41,000  Level FlightAware
01:21AM 43.1700 148.5150 225° Southwest 418 481 41,000  Level FlightAware
01:22AM 43.1280 148.4580 225° Southwest 417 480 41,000  Level FlightAware
01:22AM 43.0660 148.3740 225° Southwest 416 479 41,000  Level FlightAware
01:23AM 43.0030 148.2900 224° Southwest 416 479 41,000  Level FlightAware
01:24AM 42.9270 148.1870 225° Southwest 415 478 41,000  Level FlightAware
01:24AM 42.9200 148.1780 223° Southwest 415 478 41,000  Level FlightAware
01:25AM 42.8320 148.0580 225° Southwest 415 478 41,000  Level FlightAware
01:26AM 42.7500 147.9500 224° Southwest 415 478 41,000  Level FlightAware
01:27AM 42.6870 147.8660 224° Southwest 416 479 41,000  Level FlightAware
01:27AM 42.6660 147.8380 224° Southwest 416 479 41,000  Level FlightAware
01:28AM 42.5700 147.7100 224° Southwest 414 476 41,000  Level FlightAware
01:29AM 42.5150 147.6380 224° Southwest 413 475 41,000  Level FlightAware
01:30AM 42.4280 147.5240 224° Southwest 411 473 41,000  Level FlightAware
01:30AM 42.3940 147.4790 224° Southwest 411 473 41,000  Level FlightAware
01:31AM 42.3380 147.4060 224° Southwest 411 473 41,000  Level FlightAware
01:31AM 42.3110 147.3700 225° Southwest 411 473 41,000  Level FlightAware
01:32AM 42.2350 147.2720 224° Southwest 411 473 41,000  Level FlightAware
01:33AM 42.1720 147.1900 224° Southwest 410 472 41,000  Level FlightAware
01:34AM 42.1040 147.1010 224° Southwest 410 472 41,000  Level FlightAware
01:35AM 42.0540 147.0370 224° Southwest 410 472 41,000  Level FlightAware
01:35AM 41.9920 146.9570 224° Southwest 409 471 41,000  Level FlightAware
01:36AM 41.9510 146.9040 224° Southwest 409 471 41,000  Level FlightAware
01:36AM 41.9020 146.8410 224° Southwest 408 470 41,000  Level FlightAware
01:37AM 41.8200 146.7360 224° Southwest 408 470 41,000  Level FlightAware
01:38AM 41.7360 146.6290 224° Southwest 408 470 41,000  Level FlightAware
01:39AM 41.6940 146.5750 224° Southwest 409 471 41,000  Level FlightAware
01:40AM 41.6110 146.4690 224° Southwest 408 470 41,000  Level FlightAware
01:41AM 41.5370 146.3750 224° Southwest 409 471 41,000  Level FlightAware
01:42AM 41.4530 146.2690 223° Southwest 410 472 41,000  Level FlightAware
01:42AM 41.4020 146.2060 223° Southwest 417 480 41,000  Level FlightAware
01:43AM 41.3200 146.1030 223° Southwest 418 481 41,000  Level FlightAware
01:44AM 41.2500 146.0150 223° Southwest 419 482 41,000  Level FlightAware
01:45AM 41.1860 145.9350 223° Southwest 419 482 41,000  Level FlightAware
01:46AM 41.1150 145.8470 223° Southwest 420 483 41,000  Level FlightAware
01:47AM 41.0230 145.7330 223° Southwest 420 483 41,000  Level FlightAware
01:48AM 40.9520 145.6450 223° Southwest 421 484 41,000  Level FlightAware
01:49AM 40.8670 145.5400 223° Southwest 418 481 41,000  Level FlightAware
01:50AM 40.7890 145.4440 223° Southwest 421 484 41,000  Level FlightAware
01:50AM 40.7260 145.3680 222° Southwest 420 483 41,000  Level FlightAware
01:51AM 40.6760 145.3060 223° Southwest 417 480 41,000  Level FlightAware
01:52AM 40.5900 145.2020 223° Southwest 418 481 41,000  Level FlightAware
01:52AM 40.5550 145.1590 223° Southwest 419 482 41,000  Level FlightAware
01:53AM 40.5050 145.0990 222° Southwest 420 483 41,000  Level FlightAware
01:54AM 40.4360 145.0150 223° Southwest 420 483 41,000  Level FlightAware
01:55AM 40.3720 144.9400 222° Southwest 420 483 41,000  Level FlightAware
01:56AM 40.2980 144.8530 222° Southwest 420 483 41,000  Level FlightAware
01:56AM 40.2690 144.8180 223° Southwest 420 483 41,000  Level FlightAware
01:57AM 40.2100 144.7490 222° Southwest 420 483 41,000  Level FlightAware
01:58AM 40.1360 144.6620 222° Southwest 420 483 41,000  Level FlightAware
01:59AM 40.0760 144.5910 222° Southwest 420 483 41,000  Level FlightAware
01:59AM 40.0470 144.5570 222° Southwest 420 483 41,000  Level FlightAware
02:00AM 39.9730 144.4700 222° Southwest 420 483 41,000  Level FlightAware
02:01AM 39.9140 144.4010 222° Southwest 420 483 41,000  Level FlightAware
02:02AM 39.8400 144.3140 222° Southwest 420 483 41,000  Level FlightAware
02:02AM 39.8110 144.2800 222° Southwest 420 483 41,000  Level FlightAware
02:03AM 39.7370 144.1940 222° Southwest 420 483 41,000  Level FlightAware
02:04AM 39.7080 144.1590 223° Southwest 420 483 41,000  Level FlightAware
02:05AM 39.4680 143.8720 223° Southwest 410 472 41,000  Level FlightAware
02:06AM 39.3940 143.7850 222° Southwest 411 473 41,000  Level FlightAware
02:07AM 39.3220 143.7030 221° Southwest 412 474 41,000  Level FlightAware
02:07AM 39.2720 143.6460 221° Southwest 412 474 41,000  Level FlightAware
02:08AM 39.2220 143.5880 222° Southwest 412 474 41,000  Level FlightAware
02:08AM 39.1880 143.5490 222° Southwest 412 474 41,000  Level FlightAware
02:09AM 39.1290 143.4820 221° Southwest 412 474 41,000  Level FlightAware
02:10AM 39.0600 143.4020 222° Southwest 412 474 41,000  Level FlightAware
02:11AM 38.9790 143.3110 221° Southwest 413 475 41,000  Level FlightAware
02:12AM 38.9210 143.2490 220° Southwest 421 484 41,000  Level FlightAware
02:12AM 38.8650 143.2220 201° Southwest 446 513 41,000  Level FlightAware
02:12AM 38.8120 143.2150 186° South 455 524 41,000  Level FlightAware
02:13AM 38.7300 143.2030 187° South 456 525 41,000  Level FlightAware
02:14AM 38.6670 143.1940 186° South 456 525 41,000  Level FlightAware
02:14AM 38.5920 143.1840 186° South 456 525 41,000  Level FlightAware
02:15AM 38.4770 143.1680 186° South 453 521 41,000  Level FlightAware
02:16AM 38.4240 143.1610 186° South 453 521 41,000  Level FlightAware
02:17AM 38.2990 143.1430 186° South 454 522 41,000  Level FlightAware
02:17AM 38.2260 143.1330 186° South 453 521 41,000  Level FlightAware
02:18AM 38.1740 143.1260 186° South 451 519 41,000  Level FlightAware
02:18AM 38.0590 143.1100 186° South 450 518 41,000  Level FlightAware
02:19AM 38.0060 143.1030 186° South 450 518 41,000 -540 Level FlightAware
02:19AM 37.9450 143.0950 186° South 452 520 40,500 -1,680 Descending FlightAware
02:20AM 37.8190 143.0770 186° South 453 521 38,700 -1,560 Descending FlightAware
02:21AM 37.7550 143.0690 186° South 449 517 38,200 -1,380 Descending FlightAware
02:22AM 37.6400 143.0530 186° South 454 522 36,800 -1,500 Descending FlightAware
02:22AM 37.5670 143.0430 186° South 453 521 36,000 -1,320 Descending FlightAware
02:23AM 37.5140 143.0360 186° South 452 520 35,500 -1,380 Descending FlightAware
02:24AM 37.3850 143.0190 186° South 450 518 34,100 -1,080 Descending FlightAware
02:24AM 37.3410 143.0080 191° South 435 501 34,000 -120 Descending FlightAware
02:25AM 37.2200 142.9500 201° Southwest 436 502 34,000  Level FlightAware
02:26AM 37.1610 142.9200 202° Southwest 432 497 34,000  Level FlightAware
02:26AM 37.0820 142.8810 201° Southwest 433 498 34,000  Level FlightAware
02:27AM 37.0050 142.8420 202° Southwest 433 498 34,000  Level FlightAware
02:28AM 36.9230 142.8000 202° Southwest 432 497 34,000  Level FlightAware
02:29AM 36.8430 142.7600 202° Southwest 434 499 34,000 -120 Level FlightAware
02:29AM 36.7580 142.7180 202° Southwest 434 499 33,900 -900 Descending FlightAware
02:30AM 36.6370 142.6570 202° Southwest 435 501 32,500 -1,740 Descending FlightAware
02:31AM 36.5980 142.6370 202° Southwest 441 507 31,500 -2,700 Descending FlightAware
02:31AM 36.5440 142.6040 206° Southwest 433 498 30,300 -1,620 Descending FlightAware
02:32AM 36.4840 142.5630 209° Southwest 388 447 29,800 -600 Descending FlightAware
02:33AM 36.4170 142.5160 209° Southwest 351 404 29,500 -480 Descending FlightAware
02:34AM 36.3340 142.4580 209° Southwest 333 383 29,000 -780 Descending FlightAware
02:34AM 36.3000 142.4340 210° Southwest 338 389 28,400 -1,380 Descending FlightAware
02:34AM 36.2820 142.4220 208° Southwest 339 390 28,100 -1,440 Descending FlightAware
02:35AM 36.1910 142.3590 209° Southwest 331 381 26,500 -1,440 Descending FlightAware
02:36AM 36.1530 142.3330 209° Southwest 334 384 25,900 -1,500 Descending FlightAware
02:36AM 36.0950 142.2930 209° Southwest 329 379 24,800 -1,560 Descending FlightAware
02:37AM 36.0550 142.2650 210° Southwest 319 367 24,100 -1,320 Descending FlightAware
02:38AM 36.0040 142.2300 209° Southwest 314 361 23,300 -1,320 Descending FlightAware
02:38AM 35.9690 142.2060 209° Southwest 314 361 22,600 -1,740 Descending FlightAware
02:39AM 35.9100 142.1600 212° Southwest 321 369 21,100 -1,740 Descending FlightAware
02:39AM 35.8890 142.1360 223° Southwest 334 384 20,800 -660 Descending FlightAware
02:40AM 35.8390 142.0770 224° Southwest 338 389 20,400 -600 Descending FlightAware
02:40AM 35.8180 142.0510 225° Southwest 337 388 20,200 -600 Descending FlightAware
02:42AM 35.7310 141.9480 224° Southwest 335 386 19,500 -1,020 Descending FlightAware
02:43AM 35.6570 141.8610 224° Southwest 321 369 17,900 -1,560 Descending FlightAware
02:43AM 35.6020 141.7970 223° Southwest 318 366 16,500 -1,320 Descending FlightAware
02:44AM 35.5830 141.7380 248° West 311 358 16,000 -480 Descending FlightAware
02:45AM 35.5900 141.6870 280° West 322 371 16,000  Level FlightAware
02:45AM 35.6070 141.6240 288° West 322 371 16,000 -540 Level FlightAware
02:46AM 35.6250 141.5650 291° West 323 372 15,400 -1,320 Descending FlightAware
02:46AM 35.6430 141.5100 292° West 319 367 14,500 -1,680 Descending FlightAware
02:47AM 35.6610 141.4550 292° West 315 362 13,600 -1,440 Descending FlightAware
02:48AM 35.6880 141.3720 292° West 297 342 12,500 -1,080 Descending FlightAware
02:48AM 35.7100 141.3020 291° West 280 322 11,800 -900 Descending FlightAware
02:49AM 35.7290 141.2420 291° West 274 315 11,300 -840 Descending FlightAware
02:50AM 35.7560 141.1570 291° West 274 315 10,500 -900 Descending FlightAware
02:51AM 35.7690 141.1120 290° West 269 310 10,000 -1,320 Descending FlightAware
02:51AM 35.7370 141.0430 240° Southwest 275 316 8,700 -1,440 Descending FlightAware
02:52AM 35.7040 140.9940 230° Southwest 278 320 7,800 -1,500 Descending FlightAware
02:53AM 35.6770 140.9550 230° Southwest 288 331 7,000 -1,380 Descending FlightAware
02:53AM 35.6520 140.9150 232° Southwest 279 321 6,400 -1,140 Descending FlightAware
02:54AM 35.6320 140.8820 233° Southwest 273 314 5,900 -600 Descending FlightAware
02:54AM 35.5990 140.8290 233° Southwest 279 321 5,700 -360 Descending FlightAware
02:55AM 35.5750 140.7800 239° Southwest 275 316 5,500 -540 Descending FlightAware
02:55AM 35.5560 140.7320 244° Southwest 268 308 5,100 -660 Descending FlightAware
02:56AM 35.5440 140.7000 245° Southwest 252 290 4,900 -600 Descending FlightAware
02:57AM 35.5270 140.6490 248° West 238 274 4,500 -540 Descending FlightAware
02:57AM 35.5280 140.6140 272° West 222 255 4,300 -540 Descending FlightAware
02:58AM 35.5350 140.5630 280° West 209 241 3,900 -480 Descending FlightAware
02:58AM 35.5560 140.5270 306° West 201 231 3,700 -240 Descending FlightAware
02:59AM 35.5780 140.5100 328° Northwest 209 241 3,700 -720 Level FlightAware
02:59AM 35.6110 140.4860 329° Northwest 194 223 2,900 -1,320 Descending FlightAware
03:00AM 35.6350 140.4690 330° Northwest 204 235 2,300 -1,140 Descending FlightAware
03:00AM 35.6630 140.4490 330° Northwest 189 217 1,700 -960 Descending FlightAware
03:01AM 35.6870 140.4310 329° Northwest 157 181 1,200 -960 Descending FlightAware
03:02AM 35.7050 140.4180 330° Northwest 149 171 700 -840 Descending FlightAware
03:02AM 35.7210 140.4070 331° Northwest 145 167 400 -660 Descending FlightAware
03:03AM 35.7410 140.3920 329° Northwest 138 159 -660 Descending FlightAware
03:03AM 35.7530 140.3840 332° Northwest 138 159  Level FlightAware